sensor_id;sensor_type;location;lat;lon;timestamp;temperature;humidity
64718;DHT22;62506;46.070;14.492;2022-10-19T00:01:10;22.60;69.90
64718;DHT22;62506;46.070;14.492;2022-10-19T00:03:36;22.60;69.90
64718;DHT22;62506;46.070;14.492;2022-10-19T00:06:11;22.60;69.90
64718;DHT22;62506;46.070;14.492;2022-10-19T00:08:37;22.60;69.90
64718;DHT22;62506;46.070;14.492;2022-10-19T00:11:03;22.60;70.00
64718;DHT22;62506;46.070;14.492;2022-10-19T00:13:28;22.60;70.00
64718;DHT22;62506;46.070;14.492;2022-10-19T00:15:54;22.60;70.10
64718;DHT22;62506;46.070;14.492;2022-10-19T00:18:19;22.60;70.10
64718;DHT22;62506;46.070;14.492;2022-10-19T00:20:45;22.60;70.20
64718;DHT22;62506;46.070;14.492;2022-10-19T00:23:10;22.60;70.20
64718;DHT22;62506;46.070;14.492;2022-10-19T00:25:36;22.60;70.20
64718;DHT22;62506;46.070;14.492;2022-10-19T00:28:02;22.50;70.20
64718;DHT22;62506;46.070;14.492;2022-10-19T00:30:28;22.60;70.20
64718;DHT22;62506;46.070;14.492;2022-10-19T00:32:54;22.60;70.20
64718;DHT22;62506;46.070;14.492;2022-10-19T00:35:19;22.50;70.40
64718;DHT22;62506;46.070;14.492;2022-10-19T00:37:45;22.50;70.30
64718;DHT22;62506;46.070;14.492;2022-10-19T00:40:10;22.50;70.20
64718;DHT22;62506;46.070;14.492;2022-10-19T00:42:36;22.50;70.30
64718;DHT22;62506;46.070;14.492;2022-10-19T00:45:04;22.50;70.20
64718;DHT22;62506;46.070;14.492;2022-10-19T00:47:30;22.50;70.30
64718;DHT22;62506;46.070;14.492;2022-10-19T00:49:55;22.50;70.30
64718;DHT22;62506;46.070;14.492;2022-10-19T00:52:22;22.50;70.40
64718;DHT22;62506;46.070;14.492;2022-10-19T00:54:48;22.50;70.40
64718;DHT22;62506;46.070;14.492;2022-10-19T00:57:14;22.50;70.40
64718;DHT22;62506;46.070;14.492;2022-10-19T00:59:40;22.50;70.40
64718;DHT22;62506;46.070;14.492;2022-10-19T01:02:07;22.50;70.50
64718;DHT22;62506;46.070;14.492;2022-10-19T01:04:34;22.50;70.40
64718;DHT22;62506;46.070;14.492;2022-10-19T01:07:01;22.50;70.40
64718;DHT22;62506;46.070;14.492;2022-10-19T01:09:27;22.50;70.40
64718;DHT22;62506;46.070;14.492;2022-10-19T01:22:13;22.50;70.50
64718;DHT22;62506;46.070;14.492;2022-10-19T01:27:23;22.50;70.50
64718;DHT22;62506;46.070;14.492;2022-10-19T01:29:54;22.50;71.30
64718;DHT22;62506;46.070;14.492;2022-10-19T01:32:45;22.50;70.50
64718;DHT22;62506;46.070;14.492;2022-10-19T01:40:23;22.50;70.20
64718;DHT22;62506;46.070;14.492;2022-10-19T01:42:56;22.50;70.20
64718;DHT22;62506;46.070;14.492;2022-10-19T01:45:26;22.50;70.20
64718;DHT22;62506;46.070;14.492;2022-10-19T01:47:54;22.50;70.10
64718;DHT22;62506;46.070;14.492;2022-10-19T01:50:35;22.50;71.00
64718;DHT22;62506;46.070;14.492;2022-10-19T01:53:03;22.50;70.10
64718;DHT22;62506;46.070;14.492;2022-10-19T01:55:30;22.50;70.10
64718;DHT22;62506;46.070;14.492;2022-10-19T01:57:57;22.60;70.20
64718;DHT22;62506;46.070;14.492;2022-10-19T02:00:23;22.50;70.20
64718;DHT22;62506;46.070;14.492;2022-10-19T02:02:50;22.60;70.20
64718;DHT22;62506;46.070;14.492;2022-10-19T02:05:18;22.60;70.20
64718;DHT22;62506;46.070;14.492;2022-10-19T02:07:45;22.60;70.20
64718;DHT22;62506;46.070;14.492;2022-10-19T02:10:13;22.60;70.10
64718;DHT22;62506;46.070;14.492;2022-10-19T02:12:38;22.60;70.20
64718;DHT22;62506;46.070;14.492;2022-10-19T02:15:13;22.60;70.20
64718;DHT22;62506;46.070;14.492;2022-10-19T02:17:41;22.60;70.10
64718;DHT22;62506;46.070;14.492;2022-10-19T02:20:08;22.50;70.00
64718;DHT22;62506;46.070;14.492;2022-10-19T02:22:33;22.60;70.10
64718;DHT22;62506;46.070;14.492;2022-10-19T02:24:59;22.60;70.00
64718;DHT22;62506;46.070;14.492;2022-10-19T02:27:25;22.60;70.00
64718;DHT22;62506;46.070;14.492;2022-10-19T02:29:50;22.60;70.10
64718;DHT22;62506;46.070;14.492;2022-10-19T02:32:16;22.60;70.10
64718;DHT22;62506;46.070;14.492;2022-10-19T02:34:42;22.60;70.00
64718;DHT22;62506;46.070;14.492;2022-10-19T02:37:07;22.60;70.00
64718;DHT22;62506;46.070;14.492;2022-10-19T02:39:33;22.60;70.10
64718;DHT22;62506;46.070;14.492;2022-10-19T02:44:32;22.60;70.20
64718;DHT22;62506;46.070;14.492;2022-10-19T02:47:00;22.60;70.10
64718;DHT22;62506;46.070;14.492;2022-10-19T02:49:26;22.60;70.20
64718;DHT22;62506;46.070;14.492;2022-10-19T02:51:54;22.60;70.20
64718;DHT22;62506;46.070;14.492;2022-10-19T02:54:20;22.60;70.20
64718;DHT22;62506;46.070;14.492;2022-10-19T02:56:46;22.60;70.20
64718;DHT22;62506;46.070;14.492;2022-10-19T02:59:11;22.50;70.20
64718;DHT22;62506;46.070;14.492;2022-10-19T03:01:37;22.60;70.20
64718;DHT22;62506;46.070;14.492;2022-10-19T03:04:02;22.60;70.20
64718;DHT22;62506;46.070;14.492;2022-10-19T03:06:28;22.50;70.20
64718;DHT22;62506;46.070;14.492;2022-10-19T03:08:53;22.50;70.20
64718;DHT22;62506;46.070;14.492;2022-10-19T03:11:19;22.50;70.20
64718;DHT22;62506;46.070;14.492;2022-10-19T03:13:44;22.50;70.20
64718;DHT22;62506;46.070;14.492;2022-10-19T03:16:10;22.50;70.20
64718;DHT22;62506;46.070;14.492;2022-10-19T03:18:36;22.50;70.20
64718;DHT22;62506;46.070;14.492;2022-10-19T03:21:06;22.50;70.20
64718;DHT22;62506;46.070;14.492;2022-10-19T03:23:33;22.50;70.20
64718;DHT22;62506;46.070;14.492;2022-10-19T03:25:58;22.50;70.20
64718;DHT22;62506;46.070;14.492;2022-10-19T03:28:24;22.50;70.30
64718;DHT22;62506;46.070;14.492;2022-10-19T03:30:49;22.50;70.70
64718;DHT22;62506;46.070;14.492;2022-10-19T03:33:15;22.50;71.00
64718;DHT22;62506;46.070;14.492;2022-10-19T03:35:40;22.50;71.20
64718;DHT22;62506;46.070;14.492;2022-10-19T03:38:06;22.50;71.40
64718;DHT22;62506;46.070;14.492;2022-10-19T03:40:31;22.50;71.50
64718;DHT22;62506;46.070;14.492;2022-10-19T03:42:57;22.50;71.50
64718;DHT22;62506;46.070;14.492;2022-10-19T03:45:22;22.50;71.50
64718;DHT22;62506;46.070;14.492;2022-10-19T03:47:48;22.50;71.50
64718;DHT22;62506;46.070;14.492;2022-10-19T03:50:14;22.50;71.50
64718;DHT22;62506;46.070;14.492;2022-10-19T03:52:41;22.50;71.50
64718;DHT22;62506;46.070;14.492;2022-10-19T03:55:07;22.50;71.40
64718;DHT22;62506;46.070;14.492;2022-10-19T03:57:32;22.50;71.40
64718;DHT22;62506;46.070;14.492;2022-10-19T03:59:58;22.50;71.40
64718;DHT22;62506;46.070;14.492;2022-10-19T04:02:23;22.50;71.30
64718;DHT22;62506;46.070;14.492;2022-10-19T04:04:49;22.50;71.40
64718;DHT22;62506;46.070;14.492;2022-10-19T04:07:14;22.50;71.00
64718;DHT22;62506;46.070;14.492;2022-10-19T04:09:40;22.50;71.10
64718;DHT22;62506;46.070;14.492;2022-10-19T04:12:05;22.50;71.10
64718;DHT22;62506;46.070;14.492;2022-10-19T04:14:31;22.50;71.00
64718;DHT22;62506;46.070;14.492;2022-10-19T04:16:56;22.50;70.90
64718;DHT22;62506;46.070;14.492;2022-10-19T04:19:22;22.50;70.80
64718;DHT22;62506;46.070;14.492;2022-10-19T04:21:47;22.50;70.70
64718;DHT22;62506;46.070;14.492;2022-10-19T04:24:14;22.50;70.70
64718;DHT22;62506;46.070;14.492;2022-10-19T04:26:42;22.50;70.70
64718;DHT22;62506;46.070;14.492;2022-10-19T04:29:08;22.50;70.70
64718;DHT22;62506;46.070;14.492;2022-10-19T04:31:34;22.50;70.50
64718;DHT22;62506;46.070;14.492;2022-10-19T04:34:00;22.50;70.90
64718;DHT22;62506;46.070;14.492;2022-10-19T04:36:25;22.50;70.70
64718;DHT22;62506;46.070;14.492;2022-10-19T04:38:51;22.60;70.50
64718;DHT22;62506;46.070;14.492;2022-10-19T04:41:18;22.60;70.70
64718;DHT22;62506;46.070;14.492;2022-10-19T04:43:44;22.60;71.00
64718;DHT22;62506;46.070;14.492;2022-10-19T04:46:11;22.60;71.10
64718;DHT22;62506;46.070;14.492;2022-10-19T04:48:37;22.60;71.40
64718;DHT22;62506;46.070;14.492;2022-10-19T04:51:03;22.70;71.20
64718;DHT22;62506;46.070;14.492;2022-10-19T04:53:29;22.70;71.20
64718;DHT22;62506;46.070;14.492;2022-10-19T04:55:54;22.70;71.40
64718;DHT22;62506;46.070;14.492;2022-10-19T04:58:20;22.70;71.30
64718;DHT22;62506;46.070;14.492;2022-10-19T05:00:46;22.70;72.10
64718;DHT22;62506;46.070;14.492;2022-10-19T05:08:22;22.60;70.00
64718;DHT22;62506;46.070;14.492;2022-10-19T05:19:14;22.80;70.10
64718;DHT22;62506;46.070;14.492;2022-10-19T05:21:40;22.80;70.00
64718;DHT22;62506;46.070;14.492;2022-10-19T05:24:06;22.80;70.00
64718;DHT22;62506;46.070;14.492;2022-10-19T05:26:38;22.80;69.80
64718;DHT22;62506;46.070;14.492;2022-10-19T05:29:09;22.90;69.80
64718;DHT22;62506;46.070;14.492;2022-10-19T05:31:39;22.80;69.60
64718;DHT22;62506;46.070;14.492;2022-10-19T05:34:18;22.90;69.60
64718;DHT22;62506;46.070;14.492;2022-10-19T05:36:46;22.90;69.60
64718;DHT22;62506;46.070;14.492;2022-10-19T05:39:16;22.90;69.60
64718;DHT22;62506;46.070;14.492;2022-10-19T05:41:44;22.80;69.50
64718;DHT22;62506;46.070;14.492;2022-10-19T05:44:22;22.90;69.50
64718;DHT22;62506;46.070;14.492;2022-10-19T05:47:30;22.90;69.50
64718;DHT22;62506;46.070;14.492;2022-10-19T05:49:56;22.90;69.50
64718;DHT22;62506;46.070;14.492;2022-10-19T05:52:28;22.90;69.40
64718;DHT22;62506;46.070;14.492;2022-10-19T05:54:54;22.80;69.40
64718;DHT22;62506;46.070;14.492;2022-10-19T05:57:22;22.90;69.40
64718;DHT22;62506;46.070;14.492;2022-10-19T05:59:48;22.90;69.10
64718;DHT22;62506;46.070;14.492;2022-10-19T06:02:14;22.90;69.20
64718;DHT22;62506;46.070;14.492;2022-10-19T06:29:20;22.90;68.70
64718;DHT22;62506;46.070;14.492;2022-10-19T06:31:46;22.90;68.90
64718;DHT22;62506;46.070;14.492;2022-10-19T06:34:21;22.90;68.90
64718;DHT22;62506;46.070;14.492;2022-10-19T06:36:48;22.80;68.80
64718;DHT22;62506;46.070;14.492;2022-10-19T06:39:15;22.80;69.00
64718;DHT22;62506;46.070;14.492;2022-10-19T06:41:40;22.80;68.80
64718;DHT22;62506;46.070;14.492;2022-10-19T06:44:07;22.90;68.70
64718;DHT22;62506;46.070;14.492;2022-10-19T06:46:38;22.90;68.60
64718;DHT22;62506;46.070;14.492;2022-10-19T06:49:04;22.90;68.80
64718;DHT22;62506;46.070;14.492;2022-10-19T06:51:30;22.90;68.90
64718;DHT22;62506;46.070;14.492;2022-10-19T06:54:00;22.90;69.00
64718;DHT22;62506;46.070;14.492;2022-10-19T06:56:26;23.00;68.60
64718;DHT22;62506;46.070;14.492;2022-10-19T07:01:27;22.90;68.50
64718;DHT22;62506;46.070;14.492;2022-10-19T07:03:53;23.00;68.60
64718;DHT22;62506;46.070;14.492;2022-10-19T07:06:19;22.90;68.70
64718;DHT22;62506;46.070;14.492;2022-10-19T07:08:45;22.90;68.50
64718;DHT22;62506;46.070;14.492;2022-10-19T07:11:14;22.90;68.50
64718;DHT22;62506;46.070;14.492;2022-10-19T07:13:39;22.90;68.70
64718;DHT22;62506;46.070;14.492;2022-10-19T07:16:06;22.90;68.50
64718;DHT22;62506;46.070;14.492;2022-10-19T07:18:35;22.90;68.50
64718;DHT22;62506;46.070;14.492;2022-10-19T07:21:01;22.90;68.60
64718;DHT22;62506;46.070;14.492;2022-10-19T07:23:28;22.90;68.60
64718;DHT22;62506;46.070;14.492;2022-10-19T07:25:54;22.80;66.00
64718;DHT22;62506;46.070;14.492;2022-10-19T07:28:24;22.80;67.70
64718;DHT22;62506;46.070;14.492;2022-10-19T07:30:50;22.80;68.00
64718;DHT22;62506;46.070;14.492;2022-10-19T07:33:15;22.80;68.20
64718;DHT22;62506;46.070;14.492;2022-10-19T08:17:55;22.90;68.90
64718;DHT22;62506;46.070;14.492;2022-10-19T08:20:46;22.90;69.20
64718;DHT22;62506;46.070;14.492;2022-10-19T08:23:11;22.90;68.90
64718;DHT22;62506;46.070;14.492;2022-10-19T08:25:38;22.90;68.80
64718;DHT22;62506;46.070;14.492;2022-10-19T08:28:04;22.90;68.20
64718;DHT22;62506;46.070;14.492;2022-10-19T08:30:29;22.90;67.70
64718;DHT22;62506;46.070;14.492;2022-10-19T08:32:55;22.80;67.40
64718;DHT22;62506;46.070;14.492;2022-10-19T08:35:20;22.90;67.40
64718;DHT22;62506;46.070;14.492;2022-10-19T08:37:46;22.90;68.00
64718;DHT22;62506;46.070;14.492;2022-10-19T08:40:22;22.80;68.20
64718;DHT22;62506;46.070;14.492;2022-10-19T08:42:59;22.90;68.20
64718;DHT22;62506;46.070;14.492;2022-10-19T08:45:42;22.90;68.30
64718;DHT22;62506;46.070;14.492;2022-10-19T08:50:41;22.90;68.30
64718;DHT22;62506;46.070;14.492;2022-10-19T08:53:19;22.90;68.50
64718;DHT22;62506;46.070;14.492;2022-10-19T08:58:20;22.80;68.20
64718;DHT22;62506;46.070;14.492;2022-10-19T09:04:23;22.90;68.40
64718;DHT22;62506;46.070;14.492;2022-10-19T09:09:37;22.80;68.10
64718;DHT22;62506;46.070;14.492;2022-10-19T09:12:08;22.90;68.20
64718;DHT22;62506;46.070;14.492;2022-10-19T09:32:57;23.00;68.00
64718;DHT22;62506;46.070;14.492;2022-10-19T09:37:58;23.00;68.20
64718;DHT22;62506;46.070;14.492;2022-10-19T09:40:26;23.00;68.00
64718;DHT22;62506;46.070;14.492;2022-10-19T10:03:36;23.00;68.10
64718;DHT22;62506;46.070;14.492;2022-10-19T10:06:08;23.00;68.00
64718;DHT22;62506;46.070;14.492;2022-10-19T10:08:35;23.00;68.10
64718;DHT22;62506;46.070;14.492;2022-10-19T10:13:33;23.00;68.60
64718;DHT22;62506;46.070;14.492;2022-10-19T10:16:00;23.00;68.70
64718;DHT22;62506;46.070;14.492;2022-10-19T10:18:27;22.90;69.00
64718;DHT22;62506;46.070;14.492;2022-10-19T10:20:58;22.90;68.60
64718;DHT22;62506;46.070;14.492;2022-10-19T10:23:26;22.90;68.70
64718;DHT22;62506;46.070;14.492;2022-10-19T10:25:54;22.90;68.70
64718;DHT22;62506;46.070;14.492;2022-10-19T10:28:21;22.80;68.70
64718;DHT22;62506;46.070;14.492;2022-10-19T10:30:47;22.80;68.90
64718;DHT22;62506;46.070;14.492;2022-10-19T10:33:19;22.80;68.90
64718;DHT22;62506;46.070;14.492;2022-10-19T10:35:50;22.80;69.00
64718;DHT22;62506;46.070;14.492;2022-10-19T10:38:27;22.80;69.00
64718;DHT22;62506;46.070;14.492;2022-10-19T10:40:53;22.80;69.00
64718;DHT22;62506;46.070;14.492;2022-10-19T10:43:25;22.70;69.00
64718;DHT22;62506;46.070;14.492;2022-10-19T10:45:57;22.70;69.10
64718;DHT22;62506;46.070;14.492;2022-10-19T10:50:53;22.70;69.20
64718;DHT22;62506;46.070;14.492;2022-10-19T10:56:00;22.70;69.20
64718;DHT22;62506;46.070;14.492;2022-10-19T11:00:56;22.70;69.50
64718;DHT22;62506;46.070;14.492;2022-10-19T11:03:26;22.60;69.50
64718;DHT22;62506;46.070;14.492;2022-10-19T11:05:58;22.60;69.30
64718;DHT22;62506;46.070;14.492;2022-10-19T11:08:25;22.60;69.50
64718;DHT22;62506;46.070;14.492;2022-10-19T11:13:55;22.60;70.00
64718;DHT22;62506;46.070;14.492;2022-10-19T11:16:21;22.60;69.80
64718;DHT22;62506;46.070;14.492;2022-10-19T11:26:58;22.60;69.20
64718;DHT22;62506;46.070;14.492;2022-10-19T11:32:18;22.60;69.20
64718;DHT22;62506;46.070;14.492;2022-10-19T11:40:26;22.70;69.20
64718;DHT22;62506;46.070;14.492;2022-10-19T11:45:27;22.70;69.10
64718;DHT22;62506;46.070;14.492;2022-10-19T12:00:38;22.70;69.00
64718;DHT22;62506;46.070;14.492;2022-10-19T12:03:11;22.70;69.00
64718;DHT22;62506;46.070;14.492;2022-10-19T12:10:43;22.70;69.00
64718;DHT22;62506;46.070;14.492;2022-10-19T12:13:21;22.70;69.00
64718;DHT22;62506;46.070;14.492;2022-10-19T12:15:51;22.70;69.00
64718;DHT22;62506;46.070;14.492;2022-10-19T12:20:45;22.70;69.00
64718;DHT22;62506;46.070;14.492;2022-10-19T12:23:34;22.70;69.00
64718;DHT22;62506;46.070;14.492;2022-10-19T12:25:59;22.70;69.00
64718;DHT22;62506;46.070;14.492;2022-10-19T12:28:32;22.70;69.20
64718;DHT22;62506;46.070;14.492;2022-10-19T12:30:58;22.70;69.00
64718;DHT22;62506;46.070;14.492;2022-10-19T12:39:05;22.70;69.00
64718;DHT22;62506;46.070;14.492;2022-10-19T12:44:22;22.60;69.00
64718;DHT22;62506;46.070;14.492;2022-10-19T12:46:52;22.60;69.00
64718;DHT22;62506;46.070;14.492;2022-10-19T12:51:58;22.60;69.00
64718;DHT22;62506;46.070;14.492;2022-10-19T12:54:25;22.60;69.00
64718;DHT22;62506;46.070;14.492;2022-10-19T12:56:52;22.60;69.00
64718;DHT22;62506;46.070;14.492;2022-10-19T12:59:22;22.60;69.10
64718;DHT22;62506;46.070;14.492;2022-10-19T13:01:48;22.60;69.10
64718;DHT22;62506;46.070;14.492;2022-10-19T13:04:29;22.60;69.00
64718;DHT22;62506;46.070;14.492;2022-10-19T13:09:42;22.60;69.00
64718;DHT22;62506;46.070;14.492;2022-10-19T13:14:51;22.60;69.00
64718;DHT22;62506;46.070;14.492;2022-10-19T13:22:42;22.60;69.00
64718;DHT22;62506;46.070;14.492;2022-10-19T13:27:43;22.60;69.00
64718;DHT22;62506;46.070;14.492;2022-10-19T13:30:56;22.60;69.00
64718;DHT22;62506;46.070;14.492;2022-10-19T13:32:54;22.60;69.00
64718;DHT22;62506;46.070;14.492;2022-10-19T13:40:32;22.60;69.00
64718;DHT22;62506;46.070;14.492;2022-10-19T13:42:58;22.60;69.00
64718;DHT22;62506;46.070;14.492;2022-10-19T13:45:24;22.60;69.00
64718;DHT22;62506;46.070;14.492;2022-10-19T13:47:50;22.60;69.00
64718;DHT22;62506;46.070;14.492;2022-10-19T13:50:21;22.60;69.00
64718;DHT22;62506;46.070;14.492;2022-10-19T13:52:55;22.50;69.00
64718;DHT22;62506;46.070;14.492;2022-10-19T13:55:31;22.60;69.00
64718;DHT22;62506;46.070;14.492;2022-10-19T14:01:00;22.50;68.80
64718;DHT22;62506;46.070;14.492;2022-10-19T14:03:36;22.60;68.80
64718;DHT22;62506;46.070;14.492;2022-10-19T14:06:12;22.60;68.70
64718;DHT22;62506;46.070;14.492;2022-10-19T14:11:25;22.70;68.20
64718;DHT22;62506;46.070;14.492;2022-10-19T14:14:05;22.70;68.80
64718;DHT22;62506;46.070;14.492;2022-10-19T14:16:31;22.70;68.60
64718;DHT22;62506;46.070;14.492;2022-10-19T14:18:57;22.70;68.60
64718;DHT22;62506;46.070;14.492;2022-10-19T14:21:32;22.80;68.70
64718;DHT22;62506;46.070;14.492;2022-10-19T14:23:58;22.80;69.20
64718;DHT22;62506;46.070;14.492;2022-10-19T14:26:25;22.80;69.00
64718;DHT22;62506;46.070;14.492;2022-10-19T14:28:53;22.80;68.70
64718;DHT22;62506;46.070;14.492;2022-10-19T14:31:21;22.80;68.70
64718;DHT22;62506;46.070;14.492;2022-10-19T14:33:52;22.80;68.80
64718;DHT22;62506;46.070;14.492;2022-10-19T14:36:20;22.80;68.90
64718;DHT22;62506;46.070;14.492;2022-10-19T14:38:47;22.80;68.70
64718;DHT22;62506;46.070;14.492;2022-10-19T14:43:47;22.80;68.60
64718;DHT22;62506;46.070;14.492;2022-10-19T14:46:15;22.80;68.50
64718;DHT22;62506;46.070;14.492;2022-10-19T15:12:47;23.00;68.30
64718;DHT22;62506;46.070;14.492;2022-10-19T15:15:20;23.00;68.10
64718;DHT22;62506;46.070;14.492;2022-10-19T15:31:04;23.00;68.10
64718;DHT22;62506;46.070;14.492;2022-10-19T15:33:35;23.00;68.00
64718;DHT22;62506;46.070;14.492;2022-10-19T15:43:51;23.00;67.80
64718;DHT22;62506;46.070;14.492;2022-10-19T15:46:25;23.00;68.00
64718;DHT22;62506;46.070;14.492;2022-10-19T15:49:00;23.00;67.90
64718;DHT22;62506;46.070;14.492;2022-10-19T15:51:33;23.00;68.00
64718;DHT22;62506;46.070;14.492;2022-10-19T15:54:01;23.00;67.90
64718;DHT22;62506;46.070;14.492;2022-10-19T15:56:28;23.00;68.00
64718;DHT22;62506;46.070;14.492;2022-10-19T15:58:57;23.00;67.90
64718;DHT22;62506;46.070;14.492;2022-10-19T16:01:25;23.00;67.90
64718;DHT22;62506;46.070;14.492;2022-10-19T16:03:51;23.00;67.90
64718;DHT22;62506;46.070;14.492;2022-10-19T16:06:17;23.00;67.90
64718;DHT22;62506;46.070;14.492;2022-10-19T16:08:44;22.90;68.00
64718;DHT22;62506;46.070;14.492;2022-10-19T16:13:59;23.00;68.00
64718;DHT22;62506;46.070;14.492;2022-10-19T16:16:28;23.00;68.00
64718;DHT22;62506;46.070;14.492;2022-10-19T16:18:54;23.00;68.00
64718;DHT22;62506;46.070;14.492;2022-10-19T16:21:23;23.00;67.30
64718;DHT22;62506;46.070;14.492;2022-10-19T16:26:25;23.10;67.30
64718;DHT22;62506;46.070;14.492;2022-10-19T16:28:51;23.10;67.40
64718;DHT22;62506;46.070;14.492;2022-10-19T16:31:16;23.10;67.60
64718;DHT22;62506;46.070;14.492;2022-10-19T16:33:42;23.00;67.60
64718;DHT22;62506;46.070;14.492;2022-10-19T16:36:08;23.10;67.60
64718;DHT22;62506;46.070;14.492;2022-10-19T16:38:34;23.00;67.70
64718;DHT22;62506;46.070;14.492;2022-10-19T16:41:00;23.10;67.80
64718;DHT22;62506;46.070;14.492;2022-10-19T19:56:18;23.30;68.40
64718;DHT22;62506;46.070;14.492;2022-10-19T19:58:45;23.20;68.10
64718;DHT22;62506;46.070;14.492;2022-10-19T20:01:30;23.20;68.30
64718;DHT22;62506;46.070;14.492;2022-10-19T20:03:57;23.20;68.80
64718;DHT22;62506;46.070;14.492;2022-10-19T20:06:23;23.20;68.80
64718;DHT22;62506;46.070;14.492;2022-10-19T20:08:50;23.20;69.10
64718;DHT22;62506;46.070;14.492;2022-10-19T20:11:16;23.10;69.30
64718;DHT22;62506;46.070;14.492;2022-10-19T20:13:42;23.10;69.30
64718;DHT22;62506;46.070;14.492;2022-10-19T20:16:09;23.10;69.20
64718;DHT22;62506;46.070;14.492;2022-10-19T20:18:37;23.00;69.30
64718;DHT22;62506;46.070;14.492;2022-10-19T20:21:03;23.00;69.40
64718;DHT22;62506;46.070;14.492;2022-10-19T20:23:29;23.00;69.50
64718;DHT22;62506;46.070;14.492;2022-10-19T20:25:55;23.00;69.50
64718;DHT22;62506;46.070;14.492;2022-10-19T20:28:22;23.00;69.50
64718;DHT22;62506;46.070;14.492;2022-10-19T20:30:57;23.00;69.60
64718;DHT22;62506;46.070;14.492;2022-10-19T20:33:22;23.00;69.60
64718;DHT22;62506;46.070;14.492;2022-10-19T20:35:48;23.00;69.60
64718;DHT22;62506;46.070;14.492;2022-10-19T20:38:13;23.00;69.60
64718;DHT22;62506;46.070;14.492;2022-10-19T20:40:39;22.90;69.70
64718;DHT22;62506;46.070;14.492;2022-10-19T20:43:05;22.90;69.70
64718;DHT22;62506;46.070;14.492;2022-10-19T20:45:30;22.90;69.80
64718;DHT22;62506;46.070;14.492;2022-10-19T20:47:56;22.90;69.90
64718;DHT22;62506;46.070;14.492;2022-10-19T20:50:22;22.90;69.90
64718;DHT22;62506;46.070;14.492;2022-10-19T20:52:47;22.80;69.90
64718;DHT22;62506;46.070;14.492;2022-10-19T20:55:13;22.90;70.00
64718;DHT22;62506;46.070;14.492;2022-10-19T20:57:38;22.90;70.00
64718;DHT22;62506;46.070;14.492;2022-10-19T21:00:04;22.80;70.00
64718;DHT22;62506;46.070;14.492;2022-10-19T21:02:30;22.80;70.00
64718;DHT22;62506;46.070;14.492;2022-10-19T21:04:55;22.80;70.10
64718;DHT22;62506;46.070;14.492;2022-10-19T21:07:21;22.80;70.10
64718;DHT22;62506;46.070;14.492;2022-10-19T21:09:47;22.80;70.10
64718;DHT22;62506;46.070;14.492;2022-10-19T21:12:12;22.80;70.10
64718;DHT22;62506;46.070;14.492;2022-10-19T21:14:38;22.80;70.20
64718;DHT22;62506;46.070;14.492;2022-10-19T21:17:04;22.80;70.20
64718;DHT22;62506;46.070;14.492;2022-10-19T21:19:29;22.80;70.20
64718;DHT22;62506;46.070;14.492;2022-10-19T21:21:57;22.80;70.20
64718;DHT22;62506;46.070;14.492;2022-10-19T21:24:26;22.80;70.30
64718;DHT22;62506;46.070;14.492;2022-10-19T21:26:52;22.70;70.20
64718;DHT22;62506;46.070;14.492;2022-10-19T21:29:18;22.70;70.20
64718;DHT22;62506;46.070;14.492;2022-10-19T21:31:45;22.70;70.20
64718;DHT22;62506;46.070;14.492;2022-10-19T21:34:12;22.70;70.20
64718;DHT22;62506;46.070;14.492;2022-10-19T21:36:38;22.70;70.20
64718;DHT22;62506;46.070;14.492;2022-10-19T21:39:04;22.70;71.20
64718;DHT22;62506;46.070;14.492;2022-10-19T21:41:29;22.70;70.20
64718;DHT22;62506;46.070;14.492;2022-10-19T21:43:56;22.70;70.20
64718;DHT22;62506;46.070;14.492;2022-10-19T21:46:23;22.80;70.30
64718;DHT22;62506;46.070;14.492;2022-10-19T21:48:49;22.80;70.20
64718;DHT22;62506;46.070;14.492;2022-10-19T21:53:59;22.70;70.20
64718;DHT22;62506;46.070;14.492;2022-10-19T21:56:25;22.70;70.20
64718;DHT22;62506;46.070;14.492;2022-10-19T21:58:51;22.70;70.20
64718;DHT22;62506;46.070;14.492;2022-10-19T22:01:18;22.80;70.30
64718;DHT22;62506;46.070;14.492;2022-10-19T22:03:44;22.80;70.30
64718;DHT22;62506;46.070;14.492;2022-10-19T22:06:10;22.80;70.40
64718;DHT22;62506;46.070;14.492;2022-10-19T22:08:36;22.70;70.30
64718;DHT22;62506;46.070;14.492;2022-10-19T22:11:05;22.70;70.40
64718;DHT22;62506;46.070;14.492;2022-10-19T22:13:32;22.70;70.50
64718;DHT22;62506;46.070;14.492;2022-10-19T22:16:01;22.70;70.60
64718;DHT22;62506;46.070;14.492;2022-10-19T22:18:27;22.70;70.70
64718;DHT22;62506;46.070;14.492;2022-10-19T22:20:52;22.70;70.70
64718;DHT22;62506;46.070;14.492;2022-10-19T22:23:18;22.70;70.70
64718;DHT22;62506;46.070;14.492;2022-10-19T22:25:44;22.70;70.70
64718;DHT22;62506;46.070;14.492;2022-10-19T22:28:09;22.70;70.70
64718;DHT22;62506;46.070;14.492;2022-10-19T22:30:35;22.80;70.70
64718;DHT22;62506;46.070;14.492;2022-10-19T22:33:01;22.70;70.70
64718;DHT22;62506;46.070;14.492;2022-10-19T22:35:26;22.70;70.70
64718;DHT22;62506;46.070;14.492;2022-10-19T22:37:52;22.80;70.80
64718;DHT22;62506;46.070;14.492;2022-10-19T22:40:17;22.80;70.70
64718;DHT22;62506;46.070;14.492;2022-10-19T22:42:43;22.80;70.70
64718;DHT22;62506;46.070;14.492;2022-10-19T22:45:08;22.70;70.70
64718;DHT22;62506;46.070;14.492;2022-10-19T22:47:34;22.80;70.70
64718;DHT22;62506;46.070;14.492;2022-10-19T22:50:00;22.80;70.70
64718;DHT22;62506;46.070;14.492;2022-10-19T22:52:25;22.80;70.70
64718;DHT22;62506;46.070;14.492;2022-10-19T22:54:51;22.80;70.80
64718;DHT22;62506;46.070;14.492;2022-10-19T22:57:16;22.70;70.70
64718;DHT22;62506;46.070;14.492;2022-10-19T22:59:42;22.80;70.70
64718;DHT22;62506;46.070;14.492;2022-10-19T23:02:08;22.80;70.80
64718;DHT22;62506;46.070;14.492;2022-10-19T23:04:33;22.80;70.80
64718;DHT22;62506;46.070;14.492;2022-10-19T23:06:59;22.80;70.80
64718;DHT22;62506;46.070;14.492;2022-10-19T23:09:25;22.80;70.80
64718;DHT22;62506;46.070;14.492;2022-10-19T23:11:51;22.80;70.80
64718;DHT22;62506;46.070;14.492;2022-10-19T23:14:17;22.70;70.70
64718;DHT22;62506;46.070;14.492;2022-10-19T23:16:42;22.80;70.90
64718;DHT22;62506;46.070;14.492;2022-10-19T23:19:08;22.80;70.90
64718;DHT22;62506;46.070;14.492;2022-10-19T23:21:34;22.70;71.00
64718;DHT22;62506;46.070;14.492;2022-10-19T23:24:00;22.70;71.00
64718;DHT22;62506;46.070;14.492;2022-10-19T23:26:25;22.70;71.00
64718;DHT22;62506;46.070;14.492;2022-10-19T23:28:51;22.70;71.00
64718;DHT22;62506;46.070;14.492;2022-10-19T23:31:19;22.70;71.00